Bindloss, Canada
Current Conditions -  °F | °C
As of 2:20 AM on Thursday 27 Nov 2014 (Local Time) from CYXH Reporting Station
Light Snow Light Snow  
Wind Chill: -6°   Ceiling: 1800
Heat Index: -2°   Visibility: 1mi
Dew Point: -2°   Wind: 8mph
Humidity: 100%   Direction: 70°ENE
Pressure: 29.96"   Gusts: NA
Location:  50.88°N, 110.27°W
Report Text: CYXH 270920Z AUTO 07007KT 1SM -SN OVC018 M02/M02 A2996 RMK SLP175
Loading
Personal Weather Stations






























Interactive Weather Map New forecast layout! Learn more

10-Day Weather Forecast

Advertisements
Track Severe Weather on mobile